Celebrity Century — 9HJI9 — position and weather

sailwx.info

Track history (hours):
 
Tides and Currents Weather Stations Pressure Air Temp Water Temp Dewpoint Dewpoint Depression Visibility Wind Speed Wind Dir Waves Ship Positions

Celebrity Century

Last reported at 2019-Oct-17 06:11 UTC. Time now 2019-Oct-17 17:38 UTC.
Position N 38°10' E 016°42'.

Length 247 m; draft 8 m.

Type: Ship. MMSI: 249054000.

Date/timePositionNaut miles runAvg speedWind from/ knotsBaromVisibWave heightAir tempDewpointWater temp
2019-Oct-17 06:11N 38°10' E 016°42'4118.3
2019-Oct-17 03:56N 37°51' E 015°57'819.4
2019-Oct-17 03:30N 37°51' E 015°46'918.6
2019-Oct-17 03:00N 37°57' E 015°37'918.7
2019-Oct-17 02:30N 38°06' E 015°35'918.4
2019-Oct-17 02:01N 38°15' E 015°37'713.4
2019-Oct-17 01:31N 38°21' E 015°38'1019.3
2019-Oct-17 01:01N 38°30' E 015°32'1019.2
2019-Oct-17 00:30N 38°39' E 015°27'1019.0
2019-Oct-17 00:00N 38°47' E 015°21'918.9
2019-Oct-16 23:30N 38°55' E 015°15'6919.1
2019-Oct-16 19:52N 39°57' E 014°33'719.0
2019-Oct-16 19:30N 40°03' E 014°29'1019.0
2019-Oct-16 19:00N 40°11' E 014°22'918.6
2019-Oct-16 18:30N 40°19' E 014°16'1018.6
2019-Oct-16 17:58N 40°27' E 014°09'818.0
2019-Oct-16 17:30N 40°36' E 014°10'918.7
2019-Oct-16 17:00N 40°44' E 014°15'611.9
2019-Oct-16 16:30N 40°50' E 014°17'1 1.3
2019-Oct-16 15:55N 40°50' E 014°16'0 0.0
2019-Oct-16 15:25N 40°50' E 014°16'0 0.0
2019-Oct-16 14:55N 40°50' E 014°16'0 0.0
2019-Oct-16 14:25N 40°50' E 014°16'0 0.0
2019-Oct-16 13:55N 40°50' E 014°16'0 0.0
2019-Oct-16 13:28N 40°50' E 014°16'0 0.0
2019-Oct-16 12:58N 40°50' E 014°16'0 0.0
2019-Oct-16 12:28N 40°50' E 014°16'0 0.0
2019-Oct-16 11:58N 40°50' E 014°16'0 0.0
2019-Oct-16 11:28N 40°50' E 014°16'0 0.0
2019-Oct-16 10:58N 40°50' E 014°16'0 0.0
2019-Oct-16 10:28N 40°50' E 014°16'0 0.0
2019-Oct-16 09:58N 40°50' E 014°16'0 0.0
2019-Oct-16 09:28N 40°50' E 014°16'0 0.0
2019-Oct-16 08:58N 40°50' E 014°16'0 0.0
2019-Oct-16 08:28N 40°50' E 014°16'0 0.0
2019-Oct-16 07:58N 40°50' E 014°16'0 0.0
2019-Oct-16 07:28N 40°50' E 014°16'0 0.0
2019-Oct-16 06:58N 40°50' E 014°16'0 0.0
2019-Oct-16 06:19N 40°50' E 014°16'0 0.0
2019-Oct-16 05:49N 40°50' E 014°16'0 0.0
2019-Oct-16 05:22N 40°50' E 014°16'0 0.0
2019-Oct-16 04:52N 40°50' E 014°16'0 0.0
2019-Oct-16 04:22N 40°50' E 014°16'0 0.0
2019-Oct-16 04:00N 40°50' E 014°16'0 0.2
2019-Oct-16 03:30N 40°50' E 014°16'2 4.1
2019-Oct-16 03:00N 40°49' E 014°17'3 6.7
2019-Oct-16 02:30N 40°46' E 014°15'713.9
2019-Oct-16 02:00N 40°41' E 014°08'714.6
2019-Oct-16 01:30N 40°38' E 013°59'715.0
2019-Oct-16 01:00N 40°39' E 013°49'714.8
2019-Oct-16 00:30N 40°39' E 013°40'714.8
2019-Oct-16 00:00N 40°40' E 013°30'814.9
2019-Oct-15 23:30N 40°41' E 013°20'815.0
2019-Oct-15 22:59N 40°42' E 013°10'131 5.9
2019-Oct-15 00:53N 41°22' E 010°24'65 2.4
2019-Oct-13 22:18N 42°27' E 010°24'815.1
2019-Oct-13 21:45N 42°33' E 010°17'915.0
2019-Oct-13 21:10N 42°40' E 010°09'1514.0
2019-Oct-13 20:05N 42°54' E 010°03'415.6
2019-Oct-13 19:50N 42°58' E 010°04'614.5
2019-Oct-13 19:26N 43°04' E 010°05'716.9
2019-Oct-13 19:00N 43°11' E 010°07'918.7
2019-Oct-13 18:30N 43°20' E 010°08'917.8
2019-Oct-13 18:01N 43°29' E 010°11'611.4
2019-Oct-13 17:31N 43°32' E 010°17'1 2.0
2019-Oct-13 16:58N 43°33' E 010°18'0 0.0
2019-Oct-13 16:28N 43°33' E 010°18'0 0.0
2019-Oct-13 15:58N 43°33' E 010°18'0 0.0
2019-Oct-13 15:28N 43°33' E 010°18'0 0.0
2019-Oct-13 14:58N 43°33' E 010°18'0 0.0
2019-Oct-13 14:28N 43°33' E 010°18'0 0.0
2019-Oct-13 13:58N 43°33' E 010°18'0 0.0
2019-Oct-13 13:28N 43°33' E 010°18'0 0.0
2019-Oct-13 12:58N 43°33' E 010°18'0 0.0
2019-Oct-13 12:28N 43°33' E 010°18'0 0.0
2019-Oct-13 11:58N 43°33' E 010°18'0 0.0
2019-Oct-13 11:28N 43°33' E 010°18'0 0.0
2019-Oct-13 10:58N 43°33' E 010°18'0 0.0
2019-Oct-13 10:28N 43°33' E 010°18'0 0.0
2019-Oct-13 09:58N 43°33' E 010°18'0 0.0
2019-Oct-13 09:28N 43°33' E 010°18'0 0.0
2019-Oct-13 08:58N 43°33' E 010°18'0 0.0
2019-Oct-13 08:28N 43°33' E 010°18'0 0.0
2019-Oct-13 07:58N 43°33' E 010°18'0 0.0
2019-Oct-13 07:28N 43°33' E 010°18'0 0.0
2019-Oct-13 06:58N 43°33' E 010°18'0 0.0
2019-Oct-13 06:28N 43°33' E 010°18'0 0.0
2019-Oct-13 05:58N 43°33' E 010°18'0 0.0
2019-Oct-13 05:28N 43°33' E 010°18'0 0.0
2019-Oct-13 05:01N 43°33' E 010°18'1 1.4
2019-Oct-13 04:30N 43°33' E 010°17'2 4.2
2019-Oct-13 04:01N 43°31' E 010°15'3 6.6
2019-Oct-13 03:31N 43°29' E 010°12'612.2
2019-Oct-13 03:01N 43°25' E 010°06'714.1
2019-Oct-13 02:30N 43°19' E 009°60'714.8
2019-Oct-13 02:00N 43°18' E 009°50'815.3
2019-Oct-13 01:30N 43°17' E 009°39'815.5
2019-Oct-13 01:00N 43°17' E 009°29'815.5
2019-Oct-13 00:30N 43°15' E 009°18'815.3
2019-Oct-13 00:00N 43°13' E 009°08'815.4
2019-Oct-12 23:30N 43°12' E 008°57'815.6
2019-Oct-12 23:00N 43°11' E 008°47'815.2
2019-Oct-12 22:30N 43°10' E 008°37'815.3
2019-Oct-12 22:00N 43°09' E 008°26'815.3
2019-Oct-12 21:30N 43°07' E 008°16'815.3
2019-Oct-12 21:00N 43°06' E 008°06'714.7
2019-Oct-12 20:30N 43°05' E 007°56'918.6
2019-Oct-12 20:00N 43°03' E 007°43'1019.2
2019-Oct-12 19:31N 43°02' E 007°30'918.9
2019-Oct-12 19:00N 43°00' E 007°17'918.8
2019-Oct-12 18:30N 42°59' E 007°05'918.5
2019-Oct-12 18:00N 42°58' E 006°52'918.4
2019-Oct-12 17:30N 42°56' E 006°40'917.9
2019-Oct-12 17:00N 42°55' E 006°28'2515.5
2019-Oct-12 15:23N 43°05' E 005°57'2 4.6
2019-Oct-12 15:00N 43°07' E 005°56'0 0.1
2019-Oct-12 14:30N 43°07' E 005°56'0 0.0
2019-Oct-12 14:00N 43°07' E 005°56'0 0.0
2019-Oct-12 13:27N 43°07' E 005°56'0 0.0
2019-Oct-12 13:00N 43°07' E 005°56'0 0.0
2019-Oct-12 12:30N 43°07' E 005°56'0 0.0
2019-Oct-12 11:57N 43°07' E 005°56'0 0.0
2019-Oct-12 11:30N 43°07' E 005°56'0 0.0
2019-Oct-12 10:57N 43°07' E 005°56'0 0.0
2019-Oct-12 10:30N 43°07' E 005°56'0 0.0
2019-Oct-12 09:57N 43°07' E 005°56'0 0.0
2019-Oct-12 09:30N 43°07' E 005°56'0 0.0
2019-Oct-12 09:00N 43°07' E 005°56'0 0.0
2019-Oct-12 08:30N 43°07' E 005°56'0 0.0
2019-Oct-12 08:00N 43°07' E 005°56'0 0.0
2019-Oct-12 07:27N 43°07' E 005°56'0 0.0
2019-Oct-12 06:57N 43°07' E 005°56'0 0.1
2019-Oct-12 06:30N 43°07' E 005°56'1 2.3
2019-Oct-12 06:00N 43°06' E 005°55'4 7.4
2019-Oct-12 05:30N 43°04' E 005°60'14714.5
2019-Oct-11 19:25N 41°37' E 003°20'615.1
2019-Oct-11 19:01N 41°34' E 003°13'816.1
2019-Oct-11 18:30N 41°29' E 003°04'1019.3
2019-Oct-11 18:00N 41°24' E 002°54'1019.6
2019-Oct-11 17:30N 41°18' E 002°43'1019.4
2019-Oct-11 17:00N 41°13' E 002°32'918.9
2019-Oct-11 16:30N 41°08' E 002°22'917.9
2019-Oct-11 16:00N 41°04' E 002°11'919.0
2019-Oct-11 15:30N 41°04' E 001°58'1019.1
2019-Oct-11 15:00N 41°04' E 001°46'1019.0
2019-Oct-11 14:30N 41°04' E 001°33'917.0
2019-Oct-11 13:59N 41°04' E 001°21'15 1.4
2019-Oct-11 03:13N 40°57' E 001°38'313.2
2019-Oct-11 03:01N 40°57' E 001°42'713.5
2019-Oct-11 02:30N 40°58' E 001°51'713.5
2019-Oct-11 02:00N 40°58' E 001°60'713.7
2019-Oct-11 01:30N 40°58' E 002°09'713.8
2019-Oct-11 01:00N 40°59' E 002°18'713.8
2019-Oct-11 00:30N 40°59' E 002°27'714.3
2019-Oct-11 00:00N 40°59' E 002°37'714.3
2019-Oct-10 23:29N 41°00' E 002°46'36116.4
2019-Oct-10 01:32N 41°09' E 010°45'218.0
2019-Oct-10 01:27N 41°09' E 010°47'12418.7
2019-Oct-09 18:48N 40°42' E 013°28'518.7
2019-Oct-09 18:31N 40°41' E 013°35'918.7
2019-Oct-09 18:01N 40°39' E 013°47'918.9
2019-Oct-09 17:31N 40°38' E 013°60'918.3
2019-Oct-09 17:01N 40°43' E 014°10'816.1
2019-Oct-09 16:30N 40°49' E 014°17'1 2.5
2019-Oct-09 15:56N 40°50' E 014°16'0 0.0
2019-Oct-09 15:29N 40°50' E 014°16'0 0.0
2019-Oct-09 14:59N 40°50' E 014°16'0 0.0
2019-Oct-09 14:26N 40°50' E 014°16'0 0.0
2019-Oct-09 13:56N 40°50' E 014°16'0 0.0
2019-Oct-09 13:26N 40°50' E 014°16'0 0.0
2019-Oct-09 12:56N 40°50' E 014°16'0 0.0
2019-Oct-09 12:29N 40°50' E 014°16'0 0.0
2019-Oct-09 11:59N 40°50' E 014°16'0 0.0
2019-Oct-09 11:29N 40°50' E 014°16'0 0.0
2019-Oct-09 10:59N 40°50' E 014°16'0 0.0
2019-Oct-09 10:29N 40°50' E 014°16'0 0.0
2019-Oct-09 09:59N 40°50' E 014°16'0 0.0
2019-Oct-09 09:29N 40°50' E 014°16'0 0.0
2019-Oct-09 08:59N 40°50' E 014°16'0 0.0
2019-Oct-09 08:29N 40°50' E 014°16'0 0.0
2019-Oct-09 07:59N 40°50' E 014°16'0 0.0
2019-Oct-09 07:29N 40°50' E 014°16'0 0.0
2019-Oct-09 06:59N 40°50' E 014°16'0 0.0
2019-Oct-09 06:29N 40°50' E 014°16'0 0.0
2019-Oct-09 05:59N 40°50' E 014°16'0 0.0
2019-Oct-09 05:26N 40°50' E 014°16'0 0.0
2019-Oct-09 04:59N 40°50' E 014°16'0 0.0
2019-Oct-09 04:23N 40°50' E 014°16'0 0.0
2019-Oct-09 04:00N 40°50' E 014°16'1 1.8
2019-Oct-09 03:30N 40°50' E 014°17'612.2
2019-Oct-09 03:00N 40°44' E 014°16'918.7
2019-Oct-09 02:30N 40°35' E 014°11'1018.6
2019-Oct-09 02:00N 40°26' E 014°12'1019.4
2019-Oct-09 01:30N 40°17' E 014°17'1019.3
2019-Oct-09 01:01N 40°08' E 014°23'1018.7
2019-Oct-09 00:30N 39°60' E 014°28'6718.5
2019-Oct-08 20:52N 38°59' E 015°05'718.6
2019-Oct-08 20:28N 38°52' E 015°08'818.2
2019-Oct-08 20:01N 38°44' E 015°12'918.5
2019-Oct-08 19:30N 38°37' E 015°20'918.7
2019-Oct-08 19:00N 38°31' E 015°29'918.7
2019-Oct-08 18:31N 38°24' E 015°37'816.8
2019-Oct-08 18:01N 38°16' E 015°41'815.9
2019-Oct-08 17:31N 38°10' E 015°36'918.6
2019-Oct-08 17:00N 38°01' E 015°32'1019.3
2019-Oct-08 16:31N 37°52' E 015°27'918.6
2019-Oct-08 16:01N 37°44' E 015°21'16 1.4
2019-Oct-08 04:45N 37°28' E 015°20'417.2
2019-Oct-08 04:31N 37°28' E 015°25'917.1
2019-Oct-08 04:00N 37°29' E 015°36'1018.9
2019-Oct-08 03:30N 37°29' E 015°48'1019.0
2019-Oct-08 02:59N 37°29' E 016°01'918.8
2019-Oct-08 02:30N 37°29' E 016°12'1018.8
2019-Oct-08 02:00N 37°29' E 016°24'918.8
2019-Oct-08 01:29N 37°29' E 016°36'  
Track history (hours):
 
Tides and Currents Weather Stations Pressure Air Temp Water Temp Dewpoint Dewpoint Depression Visibility Wind Speed Wind Dir Waves Ship Positions

Celebrity Century

Last reported at 2019-Oct-17 06:11 UTC. Time now 2019-Oct-17 17:38 UTC.
Position N 38°10' E 016°42'.

Length 247 m; draft 8 m.

Type: Ship. MMSI: 249054000.

Date/timePositionNaut miles runAvg speedWind from/ knotsBaromVisibWave heightAir tempDewpointWater temp
2019-Oct-17 06:11N 38°10' E 016°42'4118.3
2019-Oct-17 03:56N 37°51' E 015°57'819.4
2019-Oct-17 03:30N 37°51' E 015°46'918.6
2019-Oct-17 03:00N 37°57' E 015°37'918.7
2019-Oct-17 02:30N 38°06' E 015°35'918.4
2019-Oct-17 02:01N 38°15' E 015°37'713.4
2019-Oct-17 01:31N 38°21' E 015°38'1019.3
2019-Oct-17 01:01N 38°30' E 015°32'1019.2
2019-Oct-17 00:30N 38°39' E 015°27'1019.0
2019-Oct-17 00:00N 38°47' E 015°21'918.9
2019-Oct-16 23:30N 38°55' E 015°15'6919.1
2019-Oct-16 19:52N 39°57' E 014°33'719.0
2019-Oct-16 19:30N 40°03' E 014°29'1019.0
2019-Oct-16 19:00N 40°11' E 014°22'918.6
2019-Oct-16 18:30N 40°19' E 014°16'1018.6
2019-Oct-16 17:58N 40°27' E 014°09'818.0
2019-Oct-16 17:30N 40°36' E 014°10'918.7
2019-Oct-16 17:00N 40°44' E 014°15'611.9
2019-Oct-16 16:30N 40°50' E 014°17'1 1.3
2019-Oct-16 15:55N 40°50' E 014°16'0 0.0
2019-Oct-16 15:25N 40°50' E 014°16'0 0.0
2019-Oct-16 14:55N 40°50' E 014°16'0 0.0
2019-Oct-16 14:25N 40°50' E 014°16'0 0.0
2019-Oct-16 13:55N 40°50' E 014°16'0 0.0
2019-Oct-16 13:28N 40°50' E 014°16'0 0.0
2019-Oct-16 12:58N 40°50' E 014°16'0 0.0
2019-Oct-16 12:28N 40°50' E 014°16'0 0.0
2019-Oct-16 11:58N 40°50' E 014°16'0 0.0
2019-Oct-16 11:28N 40°50' E 014°16'0 0.0
2019-Oct-16 10:58N 40°50' E 014°16'0 0.0
2019-Oct-16 10:28N 40°50' E 014°16'0 0.0
2019-Oct-16 09:58N 40°50' E 014°16'0 0.0
2019-Oct-16 09:28N 40°50' E 014°16'0 0.0
2019-Oct-16 08:58N 40°50' E 014°16'0 0.0
2019-Oct-16 08:28N 40°50' E 014°16'0 0.0
2019-Oct-16 07:58N 40°50' E 014°16'0 0.0
2019-Oct-16 07:28N 40°50' E 014°16'0 0.0
2019-Oct-16 06:58N 40°50' E 014°16'0 0.0
2019-Oct-16 06:19N 40°50' E 014°16'0 0.0
2019-Oct-16 05:49N 40°50' E 014°16'0 0.0
2019-Oct-16 05:22N 40°50' E 014°16'0 0.0
2019-Oct-16 04:52N 40°50' E 014°16'0 0.0
2019-Oct-16 04:22N 40°50' E 014°16'0 0.0
2019-Oct-16 04:00N 40°50' E 014°16'0 0.2
2019-Oct-16 03:30N 40°50' E 014°16'2 4.1
2019-Oct-16 03:00N 40°49' E 014°17'3 6.7
2019-Oct-16 02:30N 40°46' E 014°15'713.9
2019-Oct-16 02:00N 40°41' E 014°08'714.6
2019-Oct-16 01:30N 40°38' E 013°59'715.0
2019-Oct-16 01:00N 40°39' E 013°49'714.8
2019-Oct-16 00:30N 40°39' E 013°40'714.8
2019-Oct-16 00:00N 40°40' E 013°30'814.9
2019-Oct-15 23:30N 40°41' E 013°20'815.0
2019-Oct-15 22:59N 40°42' E 013°10'131 5.9
2019-Oct-15 00:53N 41°22' E 010°24'65 2.4
2019-Oct-13 22:18N 42°27' E 010°24'815.1
2019-Oct-13 21:45N 42°33' E 010°17'915.0
2019-Oct-13 21:10N 42°40' E 010°09'1514.0
2019-Oct-13 20:05N 42°54' E 010°03'415.6
2019-Oct-13 19:50N 42°58' E 010°04'614.5
2019-Oct-13 19:26N 43°04' E 010°05'716.9
2019-Oct-13 19:00N 43°11' E 010°07'918.7
2019-Oct-13 18:30N 43°20' E 010°08'917.8
2019-Oct-13 18:01N 43°29' E 010°11'611.4
2019-Oct-13 17:31N 43°32' E 010°17'1 2.0
2019-Oct-13 16:58N 43°33' E 010°18'0 0.0
2019-Oct-13 16:28N 43°33' E 010°18'0 0.0
2019-Oct-13 15:58N 43°33' E 010°18'0 0.0
2019-Oct-13 15:28N 43°33' E 010°18'0 0.0
2019-Oct-13 14:58N 43°33' E 010°18'0 0.0
2019-Oct-13 14:28N 43°33' E 010°18'0 0.0
2019-Oct-13 13:58N 43°33' E 010°18'0 0.0
2019-Oct-13 13:28N 43°33' E 010°18'0 0.0
2019-Oct-13 12:58N 43°33' E 010°18'0 0.0
2019-Oct-13 12:28N 43°33' E 010°18'0 0.0
2019-Oct-13 11:58N 43°33' E 010°18'0 0.0
2019-Oct-13 11:28N 43°33' E 010°18'0 0.0
2019-Oct-13 10:58N 43°33' E 010°18'0 0.0
2019-Oct-13 10:28N 43°33' E 010°18'0 0.0
2019-Oct-13 09:58N 43°33' E 010°18'0 0.0
2019-Oct-13 09:28N 43°33' E 010°18'0 0.0
2019-Oct-13 08:58N 43°33' E 010°18'0 0.0
2019-Oct-13 08:28N 43°33' E 010°18'0 0.0
2019-Oct-13 07:58N 43°33' E 010°18'0 0.0
2019-Oct-13 07:28N 43°33' E 010°18'0 0.0
2019-Oct-13 06:58N 43°33' E 010°18'0 0.0
2019-Oct-13 06:28N 43°33' E 010°18'0 0.0
2019-Oct-13 05:58N 43°33' E 010°18'0 0.0
2019-Oct-13 05:28N 43°33' E 010°18'0 0.0
2019-Oct-13 05:01N 43°33' E 010°18'1 1.4
2019-Oct-13 04:30N 43°33' E 010°17'2 4.2
2019-Oct-13 04:01N 43°31' E 010°15'3 6.6
2019-Oct-13 03:31N 43°29' E 010°12'612.2
2019-Oct-13 03:01N 43°25' E 010°06'714.1
2019-Oct-13 02:30N 43°19' E 009°60'714.8
2019-Oct-13 02:00N 43°18' E 009°50'815.3
2019-Oct-13 01:30N 43°17' E 009°39'815.5
2019-Oct-13 01:00N 43°17' E 009°29'815.5
2019-Oct-13 00:30N 43°15' E 009°18'815.3
2019-Oct-13 00:00N 43°13' E 009°08'815.4
2019-Oct-12 23:30N 43°12' E 008°57'815.6
2019-Oct-12 23:00N 43°11' E 008°47'815.2
2019-Oct-12 22:30N 43°10' E 008°37'815.3
2019-Oct-12 22:00N 43°09' E 008°26'815.3
2019-Oct-12 21:30N 43°07' E 008°16'815.3
2019-Oct-12 21:00N 43°06' E 008°06'714.7
2019-Oct-12 20:30N 43°05' E 007°56'918.6
2019-Oct-12 20:00N 43°03' E 007°43'1019.2
2019-Oct-12 19:31N 43°02' E 007°30'918.9
2019-Oct-12 19:00N 43°00' E 007°17'918.8
2019-Oct-12 18:30N 42°59' E 007°05'918.5
2019-Oct-12 18:00N 42°58' E 006°52'918.4
2019-Oct-12 17:30N 42°56' E 006°40'917.9
2019-Oct-12 17:00N 42°55' E 006°28'2515.5
2019-Oct-12 15:23N 43°05' E 005°57'2 4.6
2019-Oct-12 15:00N 43°07' E 005°56'0 0.1
2019-Oct-12 14:30N 43°07' E 005°56'0 0.0
2019-Oct-12 14:00N 43°07' E 005°56'0 0.0
2019-Oct-12 13:27N 43°07' E 005°56'0 0.0
2019-Oct-12 13:00N 43°07' E 005°56'0 0.0
2019-Oct-12 12:30N 43°07' E 005°56'0 0.0
2019-Oct-12 11:57N 43°07' E 005°56'0 0.0
2019-Oct-12 11:30N 43°07' E 005°56'0 0.0
2019-Oct-12 10:57N 43°07' E 005°56'0 0.0
2019-Oct-12 10:30N 43°07' E 005°56'0 0.0
2019-Oct-12 09:57N 43°07' E 005°56'0 0.0
2019-Oct-12 09:30N 43°07' E 005°56'0 0.0
2019-Oct-12 09:00N 43°07' E 005°56'0 0.0
2019-Oct-12 08:30N 43°07' E 005°56'0 0.0
2019-Oct-12 08:00N 43°07' E 005°56'0 0.0
2019-Oct-12 07:27N 43°07' E 005°56'0 0.0
2019-Oct-12 06:57N 43°07' E 005°56'0 0.1
2019-Oct-12 06:30N 43°07' E 005°56'1 2.3
2019-Oct-12 06:00N 43°06' E 005°55'4 7.4
2019-Oct-12 05:30N 43°04' E 005°60'14714.5
2019-Oct-11 19:25N 41°37' E 003°20'615.1
2019-Oct-11 19:01N 41°34' E 003°13'816.1
2019-Oct-11 18:30N 41°29' E 003°04'1019.3
2019-Oct-11 18:00N 41°24' E 002°54'1019.6
2019-Oct-11 17:30N 41°18' E 002°43'1019.4
2019-Oct-11 17:00N 41°13' E 002°32'918.9
2019-Oct-11 16:30N 41°08' E 002°22'917.9
2019-Oct-11 16:00N 41°04' E 002°11'919.0
2019-Oct-11 15:30N 41°04' E 001°58'1019.1
2019-Oct-11 15:00N 41°04' E 001°46'1019.0
2019-Oct-11 14:30N 41°04' E 001°33'917.0
2019-Oct-11 13:59N 41°04' E 001°21'15 1.4
2019-Oct-11 03:13N 40°57' E 001°38'313.2
2019-Oct-11 03:01N 40°57' E 001°42'713.5
2019-Oct-11 02:30N 40°58' E 001°51'713.5
2019-Oct-11 02:00N 40°58' E 001°60'713.7
2019-Oct-11 01:30N 40°58' E 002°09'713.8
2019-Oct-11 01:00N 40°59' E 002°18'713.8
2019-Oct-11 00:30N 40°59' E 002°27'714.3
2019-Oct-11 00:00N 40°59' E 002°37'714.3
2019-Oct-10 23:29N 41°00' E 002°46'36116.4
2019-Oct-10 01:32N 41°09' E 010°45'218.0
2019-Oct-10 01:27N 41°09' E 010°47'12418.7
2019-Oct-09 18:48N 40°42' E 013°28'518.7
2019-Oct-09 18:31N 40°41' E 013°35'918.7
2019-Oct-09 18:01N 40°39' E 013°47'918.9
2019-Oct-09 17:31N 40°38' E 013°60'918.3
2019-Oct-09 17:01N 40°43' E 014°10'816.1
2019-Oct-09 16:30N 40°49' E 014°17'1 2.5
2019-Oct-09 15:56N 40°50' E 014°16'0 0.0
2019-Oct-09 15:29N 40°50' E 014°16'0 0.0
2019-Oct-09 14:59N 40°50' E 014°16'0 0.0
2019-Oct-09 14:26N 40°50' E 014°16'0 0.0
2019-Oct-09 13:56N 40°50' E 014°16'0 0.0
2019-Oct-09 13:26N 40°50' E 014°16'0 0.0
2019-Oct-09 12:56N 40°50' E 014°16'0 0.0
2019-Oct-09 12:29N 40°50' E 014°16'0 0.0
2019-Oct-09 11:59N 40°50' E 014°16'0 0.0
2019-Oct-09 11:29N 40°50' E 014°16'0 0.0
2019-Oct-09 10:59N 40°50' E 014°16'0 0.0
2019-Oct-09 10:29N 40°50' E 014°16'0 0.0
2019-Oct-09 09:59N 40°50' E 014°16'0 0.0
2019-Oct-09 09:29N 40°50' E 014°16'0 0.0
2019-Oct-09 08:59N 40°50' E 014°16'0 0.0
2019-Oct-09 08:29N 40°50' E 014°16'0 0.0
2019-Oct-09 07:59N 40°50' E 014°16'0 0.0
2019-Oct-09 07:29N 40°50' E 014°16'0 0.0
2019-Oct-09 06:59N 40°50' E 014°16'0 0.0
2019-Oct-09 06:29N 40°50' E 014°16'0 0.0
2019-Oct-09 05:59N 40°50' E 014°16'0 0.0
2019-Oct-09 05:26N 40°50' E 014°16'0 0.0
2019-Oct-09 04:59N 40°50' E 014°16'0 0.0
2019-Oct-09 04:23N 40°50' E 014°16'0 0.0
2019-Oct-09 04:00N 40°50' E 014°16'1 1.8
2019-Oct-09 03:30N 40°50' E 014°17'612.2
2019-Oct-09 03:00N 40°44' E 014°16'918.7
2019-Oct-09 02:30N 40°35' E 014°11'1018.6
2019-Oct-09 02:00N 40°26' E 014°12'1019.4
2019-Oct-09 01:30N 40°17' E 014°17'1019.3
2019-Oct-09 01:01N 40°08' E 014°23'1018.7
2019-Oct-09 00:30N 39°60' E 014°28'6718.5
2019-Oct-08 20:52N 38°59' E 015°05'718.6
2019-Oct-08 20:28N 38°52' E 015°08'818.2
2019-Oct-08 20:01N 38°44' E 015°12'918.5
2019-Oct-08 19:30N 38°37' E 015°20'918.7
2019-Oct-08 19:00N 38°31' E 015°29'918.7
2019-Oct-08 18:31N 38°24' E 015°37'816.8
2019-Oct-08 18:01N 38°16' E 015°41'815.9
2019-Oct-08 17:31N 38°10' E 015°36'918.6
2019-Oct-08 17:00N 38°01' E 015°32'1019.3
2019-Oct-08 16:31N 37°52' E 015°27'918.6
2019-Oct-08 16:01N 37°44' E 015°21'16 1.4
2019-Oct-08 04:45N 37°28' E 015°20'417.2
2019-Oct-08 04:31N 37°28' E 015°25'917.1
2019-Oct-08 04:00N 37°29' E 015°36'1018.9
2019-Oct-08 03:30N 37°29' E 015°48'1019.0
2019-Oct-08 02:59N 37°29' E 016°01'918.8
2019-Oct-08 02:30N 37°29' E 016°12'1018.8
2019-Oct-08 02:00N 37°29' E 016°24'918.8
2019-Oct-08 01:29N 37°29' E 016°36'  

Dump ship's entire track history